Chiriaco Summit, California
Current Conditions -  °F | °C
As of 1:52 PM on Sunday 25 Jan 2015 (Local Time) from KTRM Reporting Station
Clear Clear  
Wind Chill: 81°   Ceiling: Unl
Heat Index: 81°   Visibility: 10mi
Dew Point: 25°   Wind: 8mph
Humidity: 13%   Direction: 260°W
Pressure: 29.98"   Gusts: NA
Location:  33.7269°N, 116.236°W
Report Text: KTRM 252152Z AUTO 26007KT 10SM CLR 27/M04 A2998 RMK AO2 SLP153 T02721039 TSNO
Loading
Personal Weather Stations






























Interactive Weather Map New forecast layout! Learn more

10-Day Weather Forecast

Advertisements
Track Severe Weather on mobile